Williamson, West Virginia
Current Conditions -  °F | °C
As of 9:15 PM on Monday 22 Dec 2014 (Local Time) from KPBX Reporting Station
Clear Clear  
Wind Chill: 51°   Ceiling: Unl
Heat Index: 51°   Visibility: 10mi
Dew Point: 39°   Wind: 9mph
Humidity: 63%   Direction: 130°SE
Pressure: 29.84"   Gusts: NA
Location:  37.67°N, 82.28°W
Report Text: KPBX 230215Z AUTO 13008KT 10SM CLR 11/04 A2984 RMK AO2 T01070038
Loading
Personal Weather Stations






























Interactive Weather Map New forecast layout! Learn more

10-Day Weather Forecast

Advertisements
Track Severe Weather on mobile